Independence, CA (93526)

4:26 AM PDT on July 25, 2014 (GMT -0700)
Fort Independence (KCAINDEP3) Elev 3980 ft | 36.83 °N, 118.22 °W | Change Station

Current weather conditions updated 2 seconds ago

Clear
Clear
72.3 °F
Feels Like 74 °F
N
2.3
Wind Variable Wind from SSW
Gusts 2.3 mph

Today is forecast to be Cooler than yesterday.

Today
High -- | Low -- °F
--% Chance of Precip.
Yesterday
High -- | Low -- °F
Precip. -- in
5:53 AM 8:05 PM
Waning Crescent, 2% visible
Pressure 29.79 in
Visibility 10.0 miles
Clouds Clear
Heat Index 74 °F
Dew Point 22 °F
Humidity 15%
Rainfall 0.00 in
Snow Depth Not available.
UV 0 out of 12
Pollen 5.70 out of 12
Air Quality Not available.
Flu Activity Not available.
METAR KBIH 251056Z AUTO 32005KT 10SM CLR 17/M04 A2996 RMK AO2 SLP086 T01671044

More Conditions Fewer Conditions

Pressure 29.79 in
Visibility 10.0 miles
Clouds Clear
Heat Index 74 °F
Dew Point 22 °F
Humidity 15%
Rainfall 0.00 in
Snow Depth Not available.
UV 0 out of 12
Pollen 5.70 out of 12
Air Quality Not available.
Flu Activity Not available.
METAR KBIH 251056Z AUTO 32005KT 10SM CLR 17/M04 A2996 RMK AO2 SLP086 T01671044

More Conditions Fewer Conditions

10-Day Weather Forecast

Almanac

Astronomy

Jul. 25, 2014 Rise Set
Actual Time 5:53 AM PDT 8:05 PM PDT
Civil Twilight 5:23 AM PDT 8:34 PM PDT
Nautical Twilight 4:48 AM PDT 9:10 PM PDT
Astronomical Twilight 4:09 AM PDT 9:48 PM PDT
Moon 4:55 AM PDT 7:07 PM PDT
Length of Visible Light 15h 10m
Length of Day
14h 12m
Tomorrow will be 1m 34s shorter.
Waning Crescent, 2% of the Moon is Illuminated
Today
Waning Crescent
Jul 26
New
Aug 3
First Quarter
Aug 10
Full
Aug 17
Last Quarter

Today's Extremes

State Highs State Lows

Community

WunderPhotos

Upload Photos

1,737,289 photos uploaded!

Nearby

Snow Depth

Station Depth Elevation
Leavitt Lake 0 in 9400 ft
Leavitt Meadows 1 in 7200 ft
Sonora Pass 0 in 8800 ft
Summit Meadow 1 in 9122 ft
Monitor Pass 0 in 8350 ft

Earthquake Activity

City Distance Mag. Time & Date
Baker, California 143 miles 3.0 12:48 PM PDT
2014-07-20
Baker, California 143 miles 3.2 12:43 PM PDT
2014-07-20
Minimum magnitude displayed is 2.5.

Coastal Water Temperatures

Place Temperature
No Stations Reporting

Nearby Weather Stations

Station Location Temp. Windchill Dew Point Humidity Wind Precip. Elev Updated Type
Fort Independence, Independence, CA 72.3 °F - 22 °F 15% SSW  at  2.3 mph 0.00 in / hr 3980 ft 4:26 AM PDT Rapid Fire
RAWS OAK CREEK CA, Independence, CA 79 °F - 15 °F 9% SSW  at  5 mph 0.00 in / hr 4899 ft 3:42 AM PDT MADIS
CEDAR GROVE, Kings Canyon National Park, CA 52.0 °F - 36 °F 54% ESE  at  0.0 mph - / hr 4717 ft 4:15 AM PDT Normal
BIG PINE CREEK, Big Pine, CA 48.0 °F 48 °F - - North  at  - - / hr 9652 ft 2:45 AM PDT Normal
COTTONWOOD LAKES, Lone Pine, CA 57.0 °F - - - North  at  - - / hr 10213 ft 3:51 AM PDT Normal
CHARLOTTE LAKE, Kings Canyon National Park, CA 38.0 °F 38 °F - - North  at  - - / hr 11968 ft 3:50 AM PDT Normal

Show More Stations Show Fewer Stations